Airfield :







YOU CAN JOIN US ON...

 
LOGIN :

Register | Disclaimer

   EN    FR    IT 

 









Legend :    VFR   Marginal VFR   IFR   Intensive IFR   Very Intensive IFR
Visi :
Ceiling :
>= 8 km
>= 3000ft
5 to 8 km
1000 to 3000 ft
1500m to 5 km
500 to 1000 ft
800 to 1500m
200 to 500 ft
< 800m
< 200 ft
Symbols :   Thunderstorms  Fog  Heavy snow  Heavy precipitations  Wind > 20 kt






- Airport Elevation : 110 ft
- IATA code : YFB


CYFB - Iqaluit

CURRENT METAR :
  • 200100Z 05004KT 15SM FEW250 M04/M08 A3018 RMK CI1 CI TR SLP225

EXPIRED METARs :
  • 200000Z 04003KT 15SM FEW250 M03/M08 A3018 RMK CI1 SLP224
  • 192300Z 04004KT 15SM FEW250 M03/M07 A3018 RMK CI1 SLP223

TAF TAF CYFB
Valid from the 20 at 00:00 until the 21 at 00:00 UTC


192341Z 2000/2024 VRB03KT P6SM FEW240
FM200400 VRB03KT P6SM FEW015 BKN030
BECMG 2012/2014 15010KT
FM201400 15010KT 4SM -SN BKN015 OVC030 RMK NXT FCST BY 200600Z



MET'MAP, your aeronautical weather chart ! - Copyright ORBIFLY December 2007 - Disclaimer

ORBIFLY MET'MAP TEAM :

Programming & Development : Alexandra Zaïnal
Concept & Development : Baudouin d'Aumeries
Co-Development & Prog : Marc-Olivier Méhu
Technical & hardware support : Manuel Goepfert

Contact : metmap@orbifly.com




SOURCES & CREDITS :

   NOAA